Aérodrome :
LOGIN :

S'inscrire | Disclaimer

   EN    FR    IT 

 










Légende :    VFR   VFR Marginal   IFR   IFR Intensif   IFR Très Intensif
Visi : 
Plafond : 
>= 8 km
>= 3000ft
5 à 8 km
1000 à 3000 ft
1500m à 5 km
500 à 1000 ft
800 à 1500m
200 à 500 ft
< 800m
< 200 ft
Symboles :   Orages  Brouillard  Fortes neiges  Fortes précipitations  Vent > 20 kt
SIGMETs :   Divers  Orages  Givrage  Turbulence  Onde Orograph.  Cendres Volcan.






- Altitude de l'aérodrome : 353 ft
- Code IATA : LIN


LIML - Milano Linate

DERNIER METAR :
  • 260620Z 18001KT 0300 R36/0325N FZFG NSC M01/M01 Q1025 NOSIG

METARs EXPIRÉS :
  • 260550Z 20001KT 0200 R36/0300N FZFG NSC M02/M02 Q1025 NOSIG
  • 260520Z VRB01KT 0500 R36/0250N FZFG NSC M02/M02 Q1025 NOSIG
  • 260450Z VRB01KT 0100 R36/0350U FZFG NSC M02/M02 Q1025 NOSIG
  • 260420Z VRB01KT 0200 R36/1200N FZFG NSC M01/M01 Q1025 NOSIG
  • 260350Z 02002KT 0500 R36/0350U FZFG NSC M01/M01 Q1025 NOSIG

TAF TAF LIML
Valide du 26 à 06h jusqu'au 27 à 06h UTC


260500Z 2606/2706 VRB03KT 5000 BR NSC
TEMPO 2606/2608 0200 FZFG
TEMPO 2623/2709 0200 FZFG



MET'MAP, la Météo Aéronautique d'un coup d'oeil ! - Copyright ORBIFLY Décembre 2007 - Disclaimer

ORBIFLY MET'MAP TEAM :

Programmation & Développement : Alexandra Zaïnal
Sur une idée originale de : Baudouin d'Aumeries
Assistance à la programmation : Marc-Olivier Méhu
Soutien technique & logistique : Manuel Goepfert

Contact : metmap@orbifly.com




SOURCES & CREDITS :

   NOAA